Airfield :







YOU CAN JOIN US ON...

 
LOGIN :

Register | Disclaimer

   EN    FR    IT 

 









Legend :    VFR   Marginal VFR   IFR   Intensive IFR   Very Intensive IFR
Visi :
Ceiling :
>= 8 km
>= 3000ft
5 to 8 km
1000 to 3000 ft
1500m to 5 km
500 to 1000 ft
800 to 1500m
200 to 500 ft
< 800m
< 200 ft
Symbols :   Thunderstorms  Fog  Heavy snow  Heavy precipitations  Wind > 20 kt






- Airport Elevation : 352 ft


KAUG - Augusta State

CURRENT METAR :
  • 110553Z AUTO 31011G18KT 10SM BKN044 OVC070 03/M04 A2999 RMK AO2 PK WND 28026/0515 RAB0457E02SNB02E13 SLP157 P0000 60001 T00281044 10083 20028 51037

EXPIRED METARs :
  • 110526Z AUTO 29008G19KT 10SM OVC030 03/M04 A2997 RMK AO2 PK WND 28026/0515 RAB0457E02SNB02E13 P0000 T00331039
  • 110515Z AUTO 29018G26KT 9SM OVC029 03/M04 A2998 RMK AO2 PK WND 28026/0515 RAB0457E02SNB02E13 P0000 T00331039
  • 110453Z AUTO 29005KT 10SM OVC039 04/M04 A2995 RMK AO2 SLP145 T00441044 401170044
  • 110353Z AUTO 29008G15KT 10SM OVC055 05/M04 A2993 RMK AO2 SLP139 T00501039

TAF KAUG
Valid from the 11 at 06:00 until the 12 at 06:00 UTC


110520Z 1106/1206 30007KT P6SM OVC050
FM111800 33005KT P6SM FEW250



MET'MAP, your aeronautical weather chart ! - Copyright ORBIFLY December 2007 - Disclaimer

ORBIFLY MET'MAP TEAM :

Programming & Development : Alexandra Zaïnal
Concept & original design : Baudouin d'Aumeries
Assistance for programming : Marc-Olivier Méhu
Technical & hardware support : Manuel Goepfert

Contact : metmap@orbifly.com




SOURCES & CREDITS :

   NOAA